sensor_id;sensor_type;location;lat;lon;timestamp;P1;durP1;ratioP1;P2;durP2;ratioP2
10588;SDS011;5342;55.676;13.346;2022-07-29T00:02:23;6.57;;;1.90;;
10588;SDS011;5342;55.676;13.346;2022-07-29T00:04:49;4.23;;;2.10;;
10588;SDS011;5342;55.676;13.346;2022-07-29T00:07:16;6.93;;;2.50;;
10588;SDS011;5342;55.676;13.346;2022-07-29T00:09:42;3.73;;;2.10;;
10588;SDS011;5342;55.676;13.346;2022-07-29T00:12:09;5.30;;;2.20;;
10588;SDS011;5342;55.676;13.346;2022-07-29T00:14:36;3.77;;;2.57;;
10588;SDS011;5342;55.676;13.346;2022-07-29T00:17:02;6.40;;;2.20;;
10588;SDS011;5342;55.676;13.346;2022-07-29T00:19:29;5.73;;;1.93;;
10588;SDS011;5342;55.676;13.346;2022-07-29T00:21:56;3.90;;;1.90;;
10588;SDS011;5342;55.676;13.346;2022-07-29T00:24:22;4.60;;;1.80;;
10588;SDS011;5342;55.676;13.346;2022-07-29T00:26:49;4.37;;;2.03;;
10588;SDS011;5342;55.676;13.346;2022-07-29T00:29:15;5.43;;;1.90;;
10588;SDS011;5342;55.676;13.346;2022-07-29T00:31:42;6.73;;;2.70;;
10588;SDS011;5342;55.676;13.346;2022-07-29T00:34:08;5.20;;;1.93;;
10588;SDS011;5342;55.676;13.346;2022-07-29T00:36:55;3.50;;;1.73;;
10588;SDS011;5342;55.676;13.346;2022-07-29T00:39:21;3.53;;;2.23;;
10588;SDS011;5342;55.676;13.346;2022-07-29T00:41:48;3.17;;;2.00;;
10588;SDS011;5342;55.676;13.346;2022-07-29T00:44:15;5.67;;;2.13;;
10588;SDS011;5342;55.676;13.346;2022-07-29T00:46:41;5.53;;;2.10;;
10588;SDS011;5342;55.676;13.346;2022-07-29T00:49:08;2.50;;;1.90;;
10588;SDS011;5342;55.676;13.346;2022-07-29T00:51:35;5.33;;;2.13;;
10588;SDS011;5342;55.676;13.346;2022-07-29T00:54:03;3.23;;;2.10;;
10588;SDS011;5342;55.676;13.346;2022-07-29T00:56:29;2.63;;;1.50;;
10588;SDS011;5342;55.676;13.346;2022-07-29T00:58:56;4.70;;;2.10;;
10588;SDS011;5342;55.676;13.346;2022-07-29T01:01:23;2.23;;;1.67;;
10588;SDS011;5342;55.676;13.346;2022-07-29T01:03:50;3.40;;;2.20;;
10588;SDS011;5342;55.676;13.346;2022-07-29T01:06:17;2.83;;;1.60;;
10588;SDS011;5342;55.676;13.346;2022-07-29T01:08:44;4.37;;;1.90;;
10588;SDS011;5342;55.676;13.346;2022-07-29T01:11:11;5.30;;;2.30;;
10588;SDS011;5342;55.676;13.346;2022-07-29T01:13:38;6.03;;;2.27;;
10588;SDS011;5342;55.676;13.346;2022-07-29T01:18:51;3.63;;;2.17;;
10588;SDS011;5342;55.676;13.346;2022-07-29T01:34:11;5.93;;;2.40;;
10588;SDS011;5342;55.676;13.346;2022-07-29T01:36:45;4.40;;;1.87;;
10588;SDS011;5342;55.676;13.346;2022-07-29T01:39:22;3.97;;;2.10;;
10588;SDS011;5342;55.676;13.346;2022-07-29T01:41:52;6.00;;;2.00;;
10588;SDS011;5342;55.676;13.346;2022-07-29T01:44:31;3.63;;;2.23;;
10588;SDS011;5342;55.676;13.346;2022-07-29T01:46:59;2.43;;;1.90;;
10588;SDS011;5342;55.676;13.346;2022-07-29T01:49:30;2.43;;;1.53;;
10588;SDS011;5342;55.676;13.346;2022-07-29T01:52:08;4.70;;;2.00;;
10588;SDS011;5342;55.676;13.346;2022-07-29T01:54:38;3.87;;;2.13;;
10588;SDS011;5342;55.676;13.346;2022-07-29T01:57:09;4.77;;;2.00;;
10588;SDS011;5342;55.676;13.346;2022-07-29T01:59:37;4.90;;;1.90;;
10588;SDS011;5342;55.676;13.346;2022-07-29T02:02:04;3.33;;;2.00;;
10588;SDS011;5342;55.676;13.346;2022-07-29T02:04:34;3.23;;;2.10;;
10588;SDS011;5342;55.676;13.346;2022-07-29T02:07:03;2.70;;;1.80;;
10588;SDS011;5342;55.676;13.346;2022-07-29T02:09:31;6.53;;;2.10;;
10588;SDS011;5342;55.676;13.346;2022-07-29T02:11:59;5.07;;;2.10;;
10588;SDS011;5342;55.676;13.346;2022-07-29T02:14:26;3.67;;;2.10;;
10588;SDS011;5342;55.676;13.346;2022-07-29T02:16:54;3.97;;;1.97;;
10588;SDS011;5342;55.676;13.346;2022-07-29T02:19:22;4.07;;;1.60;;
10588;SDS011;5342;55.676;13.346;2022-07-29T02:21:50;3.63;;;1.80;;
10588;SDS011;5342;55.676;13.346;2022-07-29T02:24:18;3.37;;;1.70;;
10588;SDS011;5342;55.676;13.346;2022-07-29T02:26:44;4.60;;;2.07;;
10588;SDS011;5342;55.676;13.346;2022-07-29T02:29:12;2.83;;;2.00;;
10588;SDS011;5342;55.676;13.346;2022-07-29T02:31:39;3.90;;;1.80;;
10588;SDS011;5342;55.676;13.346;2022-07-29T02:34:08;5.83;;;1.97;;
10588;SDS011;5342;55.676;13.346;2022-07-29T02:36:36;4.30;;;2.07;;
10588;SDS011;5342;55.676;13.346;2022-07-29T02:39:04;3.17;;;1.70;;
10588;SDS011;5342;55.676;13.346;2022-07-29T02:41:37;5.80;;;1.83;;
10588;SDS011;5342;55.676;13.346;2022-07-29T02:44:06;4.43;;;2.20;;
10588;SDS011;5342;55.676;13.346;2022-07-29T02:46:36;4.10;;;2.10;;
10588;SDS011;5342;55.676;13.346;2022-07-29T02:51:46;6.47;;;2.13;;
10588;SDS011;5342;55.676;13.346;2022-07-29T02:54:23;3.80;;;2.17;;
10588;SDS011;5342;55.676;13.346;2022-07-29T02:56:50;4.20;;;2.30;;
10588;SDS011;5342;55.676;13.346;2022-07-29T02:59:21;3.80;;;2.30;;
10588;SDS011;5342;55.676;13.346;2022-07-29T03:01:48;4.60;;;2.10;;
10588;SDS011;5342;55.676;13.346;2022-07-29T03:04:15;4.57;;;2.03;;
10588;SDS011;5342;55.676;13.346;2022-07-29T03:06:42;7.93;;;2.37;;
10588;SDS011;5342;55.676;13.346;2022-07-29T03:09:10;4.43;;;2.58;;
10588;SDS011;5342;55.676;13.346;2022-07-29T03:11:36;5.90;;;2.63;;
10588;SDS011;5342;55.676;13.346;2022-07-29T03:14:04;3.53;;;2.57;;
10588;SDS011;5342;55.676;13.346;2022-07-29T03:16:32;4.87;;;2.40;;
10588;SDS011;5342;55.676;13.346;2022-07-29T03:19:02;3.57;;;2.53;;
10588;SDS011;5342;55.676;13.346;2022-07-29T03:21:29;6.80;;;2.93;;
10588;SDS011;5342;55.676;13.346;2022-07-29T03:23:56;4.20;;;2.83;;
10588;SDS011;5342;55.676;13.346;2022-07-29T03:26:22;4.23;;;2.50;;
10588;SDS011;5342;55.676;13.346;2022-07-29T03:28:49;6.93;;;3.10;;
10588;SDS011;5342;55.676;13.346;2022-07-29T03:31:15;3.20;;;2.87;;
10588;SDS011;5342;55.676;13.346;2022-07-29T03:33:42;4.17;;;2.70;;
10588;SDS011;5342;55.676;13.346;2022-07-29T03:36:09;5.00;;;3.20;;
10588;SDS011;5342;55.676;13.346;2022-07-29T03:38:35;6.30;;;3.10;;
10588;SDS011;5342;55.676;13.346;2022-07-29T03:41:09;4.47;;;2.60;;
10588;SDS011;5342;55.676;13.346;2022-07-29T03:43:38;10.17;;;2.70;;
10588;SDS011;5342;55.676;13.346;2022-07-29T03:46:06;5.23;;;2.60;;
10588;SDS011;5342;55.676;13.346;2022-07-29T03:48:34;6.40;;;3.13;;
10588;SDS011;5342;55.676;13.346;2022-07-29T03:51:02;5.07;;;3.00;;
10588;SDS011;5342;55.676;13.346;2022-07-29T03:53:29;8.80;;;2.60;;
10588;SDS011;5342;55.676;13.346;2022-07-29T03:55:57;5.37;;;2.53;;
10588;SDS011;5342;55.676;13.346;2022-07-29T03:58:26;6.47;;;2.87;;
10588;SDS011;5342;55.676;13.346;2022-07-29T04:00:53;6.57;;;2.90;;
10588;SDS011;5342;55.676;13.346;2022-07-29T04:03:20;5.97;;;2.60;;
10588;SDS011;5342;55.676;13.346;2022-07-29T04:06:00;4.53;;;2.40;;
10588;SDS011;5342;55.676;13.346;2022-07-29T04:08:27;7.13;;;3.23;;
10588;SDS011;5342;55.676;13.346;2022-07-29T04:10:53;5.70;;;2.77;;
10588;SDS011;5342;55.676;13.346;2022-07-29T04:13:20;7.83;;;3.07;;
10588;SDS011;5342;55.676;13.346;2022-07-29T04:15:47;7.67;;;3.40;;
10588;SDS011;5342;55.676;13.346;2022-07-29T04:18:13;5.27;;;2.90;;
10588;SDS011;5342;55.676;13.346;2022-07-29T04:20:40;4.80;;;2.80;;
10588;SDS011;5342;55.676;13.346;2022-07-29T04:23:06;5.77;;;3.00;;
10588;SDS011;5342;55.676;13.346;2022-07-29T04:25:33;3.50;;;3.20;;
10588;SDS011;5342;55.676;13.346;2022-07-29T04:28:02;4.00;;;2.77;;
10588;SDS011;5342;55.676;13.346;2022-07-29T04:30:29;4.93;;;3.20;;
10588;SDS011;5342;55.676;13.346;2022-07-29T04:32:56;6.07;;;2.97;;
10588;SDS011;5342;55.676;13.346;2022-07-29T04:35:23;6.43;;;3.20;;
10588;SDS011;5342;55.676;13.346;2022-07-29T04:37:49;4.20;;;3.00;;
10588;SDS011;5342;55.676;13.346;2022-07-29T04:40:16;5.23;;;2.70;;
10588;SDS011;5342;55.676;13.346;2022-07-29T04:42:42;6.43;;;3.07;;
10588;SDS011;5342;55.676;13.346;2022-07-29T04:45:09;6.37;;;3.33;;
10588;SDS011;5342;55.676;13.346;2022-07-29T04:47:36;6.57;;;3.97;;
10588;SDS011;5342;55.676;13.346;2022-07-29T04:50:02;6.20;;;3.97;;
10588;SDS011;5342;55.676;13.346;2022-07-29T04:52:30;4.87;;;3.57;;
10588;SDS011;5342;55.676;13.346;2022-07-29T04:54:57;8.83;;;4.00;;
10588;SDS011;5342;55.676;13.346;2022-07-29T04:57:23;8.73;;;3.50;;
10588;SDS011;5342;55.676;13.346;2022-07-29T04:59:50;9.77;;;3.70;;
10588;SDS011;5342;55.676;13.346;2022-07-29T05:02:16;5.13;;;3.33;;
10588;SDS011;5342;55.676;13.346;2022-07-29T05:04:43;6.40;;;3.27;;
10588;SDS011;5342;55.676;13.346;2022-07-29T05:07:09;4.43;;;3.30;;
10588;SDS011;5342;55.676;13.346;2022-07-29T05:09:36;5.77;;;3.77;;
10588;SDS011;5342;55.676;13.346;2022-07-29T05:12:03;6.80;;;3.40;;
10588;SDS011;5342;55.676;13.346;2022-07-29T05:14:29;6.67;;;3.00;;
10588;SDS011;5342;55.676;13.346;2022-07-29T05:16:56;5.53;;;3.00;;
10588;SDS011;5342;55.676;13.346;2022-07-29T05:19:22;7.37;;;2.53;;
10588;SDS011;5342;55.676;13.346;2022-07-29T05:21:49;4.03;;;2.30;;
10588;SDS011;5342;55.676;13.346;2022-07-29T05:24:16;3.50;;;2.47;;
10588;SDS011;5342;55.676;13.346;2022-07-29T05:26:42;8.53;;;2.90;;
10588;SDS011;5342;55.676;13.346;2022-07-29T05:29:09;5.13;;;2.10;;
10588;SDS011;5342;55.676;13.346;2022-07-29T05:31:36;5.73;;;2.77;;
10588;SDS011;5342;55.676;13.346;2022-07-29T05:34:03;4.73;;;2.47;;
10588;SDS011;5342;55.676;13.346;2022-07-29T05:36:29;6.27;;;3.00;;
10588;SDS011;5342;55.676;13.346;2022-07-29T05:38:56;4.20;;;2.57;;
10588;SDS011;5342;55.676;13.346;2022-07-29T05:41:23;5.73;;;2.80;;
10588;SDS011;5342;55.676;13.346;2022-07-29T05:43:49;7.07;;;2.33;;
10588;SDS011;5342;55.676;13.346;2022-07-29T05:46:16;4.30;;;2.30;;
10588;SDS011;5342;55.676;13.346;2022-07-29T05:48:42;4.27;;;2.67;;
10588;SDS011;5342;55.676;13.346;2022-07-29T05:51:09;2.63;;;2.20;;
10588;SDS011;5342;55.676;13.346;2022-07-29T05:53:35;5.17;;;2.53;;
10588;SDS011;5342;55.676;13.346;2022-07-29T05:56:03;5.13;;;2.40;;
10588;SDS011;5342;55.676;13.346;2022-07-29T05:58:33;2.97;;;2.33;;
10588;SDS011;5342;55.676;13.346;2022-07-29T06:00:59;4.90;;;2.50;;
10588;SDS011;5342;55.676;13.346;2022-07-29T06:03:26;6.40;;;2.20;;
10588;SDS011;5342;55.676;13.346;2022-07-29T06:05:52;2.43;;;2.10;;
10588;SDS011;5342;55.676;13.346;2022-07-29T06:08:19;5.23;;;2.40;;
10588;SDS011;5342;55.676;13.346;2022-07-29T06:10:46;3.47;;;2.20;;
10588;SDS011;5342;55.676;13.346;2022-07-29T06:13:12;5.53;;;2.30;;
10588;SDS011;5342;55.676;13.346;2022-07-29T06:15:41;3.50;;;2.40;;
10588;SDS011;5342;55.676;13.346;2022-07-29T06:18:08;4.73;;;2.30;;
10588;SDS011;5342;55.676;13.346;2022-07-29T06:20:36;4.07;;;2.40;;
10588;SDS011;5342;55.676;13.346;2022-07-29T06:23:02;4.47;;;2.27;;
10588;SDS011;5342;55.676;13.346;2022-07-29T06:25:30;4.23;;;2.43;;
10588;SDS011;5342;55.676;13.346;2022-07-29T06:28:00;3.07;;;2.13;;
10588;SDS011;5342;55.676;13.346;2022-07-29T06:30:26;4.37;;;2.40;;
10588;SDS011;5342;55.676;13.346;2022-07-29T06:32:54;3.23;;;2.40;;
10588;SDS011;5342;55.676;13.346;2022-07-29T06:35:20;4.53;;;2.40;;
10588;SDS011;5342;55.676;13.346;2022-07-29T06:37:47;6.10;;;2.70;;
10588;SDS011;5342;55.676;13.346;2022-07-29T06:40:14;4.53;;;2.20;;
10588;SDS011;5342;55.676;13.346;2022-07-29T06:42:59;4.63;;;2.50;;
10588;SDS011;5342;55.676;13.346;2022-07-29T06:45:26;3.73;;;2.30;;
10588;SDS011;5342;55.676;13.346;2022-07-29T06:47:52;6.00;;;2.00;;
10588;SDS011;5342;55.676;13.346;2022-07-29T06:50:19;2.73;;;2.20;;
10588;SDS011;5342;55.676;13.346;2022-07-29T06:52:45;5.97;;;2.30;;
10588;SDS011;5342;55.676;13.346;2022-07-29T06:55:12;4.80;;;1.90;;
10588;SDS011;5342;55.676;13.346;2022-07-29T06:57:39;4.33;;;2.03;;
10588;SDS011;5342;55.676;13.346;2022-07-29T07:00:06;6.70;;;2.73;;
10588;SDS011;5342;55.676;13.346;2022-07-29T07:02:33;8.87;;;2.67;;
10588;SDS011;5342;55.676;13.346;2022-07-29T07:04:59;4.17;;;2.10;;
10588;SDS011;5342;55.676;13.346;2022-07-29T07:07:26;4.07;;;2.00;;
10588;SDS011;5342;55.676;13.346;2022-07-29T07:09:53;6.73;;;2.70;;
10588;SDS011;5342;55.676;13.346;2022-07-29T07:12:19;3.73;;;2.00;;
10588;SDS011;5342;55.676;13.346;2022-07-29T07:14:46;4.57;;;2.20;;
10588;SDS011;5342;55.676;13.346;2022-07-29T07:17:13;2.93;;;2.00;;
10588;SDS011;5342;55.676;13.346;2022-07-29T07:19:40;3.87;;;1.50;;
10588;SDS011;5342;55.676;13.346;2022-07-29T07:22:06;5.60;;;2.07;;
10588;SDS011;5342;55.676;13.346;2022-07-29T07:24:33;2.90;;;1.77;;
10588;SDS011;5342;55.676;13.346;2022-07-29T07:26:59;3.33;;;1.63;;
10588;SDS011;5342;55.676;13.346;2022-07-29T07:29:26;5.07;;;1.87;;
10588;SDS011;5342;55.676;13.346;2022-07-29T07:31:52;2.87;;;1.60;;
10588;SDS011;5342;55.676;13.346;2022-07-29T07:34:20;2.90;;;1.47;;
10588;SDS011;5342;55.676;13.346;2022-07-29T07:36:47;3.37;;;2.00;;
10588;SDS011;5342;55.676;13.346;2022-07-29T07:39:13;2.90;;;1.77;;
10588;SDS011;5342;55.676;13.346;2022-07-29T07:41:40;2.53;;;1.60;;
10588;SDS011;5342;55.676;13.346;2022-07-29T07:44:06;3.57;;;1.80;;
10588;SDS011;5342;55.676;13.346;2022-07-29T07:46:33;4.00;;;1.90;;
10588;SDS011;5342;55.676;13.346;2022-07-29T07:48:59;3.90;;;1.50;;
10588;SDS011;5342;55.676;13.346;2022-07-29T07:51:26;3.17;;;1.60;;
10588;SDS011;5342;55.676;13.346;2022-07-29T07:53:53;5.03;;;2.10;;
10588;SDS011;5342;55.676;13.346;2022-07-29T07:56:19;2.77;;;1.40;;
10588;SDS011;5342;55.676;13.346;2022-07-29T07:58:46;2.40;;;1.33;;
10588;SDS011;5342;55.676;13.346;2022-07-29T08:01:12;4.60;;;1.60;;
10588;SDS011;5342;55.676;13.346;2022-07-29T08:03:39;5.27;;;1.73;;
10588;SDS011;5342;55.676;13.346;2022-07-29T08:06:05;3.23;;;2.00;;
10588;SDS011;5342;55.676;13.346;2022-07-29T08:08:32;3.50;;;1.60;;
10588;SDS011;5342;55.676;13.346;2022-07-29T08:10:59;6.10;;;1.77;;
10588;SDS011;5342;55.676;13.346;2022-07-29T08:13:27;2.53;;;1.40;;
10588;SDS011;5342;55.676;13.346;2022-07-29T08:15:55;3.83;;;1.50;;
10588;SDS011;5342;55.676;13.346;2022-07-29T08:18:37;3.37;;;1.80;;
10588;SDS011;5342;55.676;13.346;2022-07-29T08:21:04;3.13;;;1.70;;
10588;SDS011;5342;55.676;13.346;2022-07-29T08:23:30;3.83;;;1.33;;
10588;SDS011;5342;55.676;13.346;2022-07-29T08:26:05;2.03;;;1.40;;
10588;SDS011;5342;55.676;13.346;2022-07-29T08:28:31;2.80;;;1.57;;
10588;SDS011;5342;55.676;13.346;2022-07-29T08:30:58;4.60;;;1.83;;
10588;SDS011;5342;55.676;13.346;2022-07-29T08:33:24;4.80;;;1.67;;
10588;SDS011;5342;55.676;13.346;2022-07-29T08:35:51;2.20;;;1.03;;
10588;SDS011;5342;55.676;13.346;2022-07-29T08:38:17;2.53;;;1.20;;
10588;SDS011;5342;55.676;13.346;2022-07-29T08:40:44;3.20;;;1.30;;
10588;SDS011;5342;55.676;13.346;2022-07-29T08:43:11;3.47;;;1.70;;
10588;SDS011;5342;55.676;13.346;2022-07-29T08:45:42;3.43;;;1.60;;
10588;SDS011;5342;55.676;13.346;2022-07-29T08:48:11;2.10;;;1.23;;
10588;SDS011;5342;55.676;13.346;2022-07-29T08:50:38;4.97;;;1.70;;
10588;SDS011;5342;55.676;13.346;2022-07-29T08:53:06;2.80;;;1.50;;
10588;SDS011;5342;55.676;13.346;2022-07-29T08:55:33;2.13;;;1.33;;
10588;SDS011;5342;55.676;13.346;2022-07-29T08:58:00;1.77;;;1.50;;
10588;SDS011;5342;55.676;13.346;2022-07-29T09:00:27;3.83;;;1.37;;
10588;SDS011;5342;55.676;13.346;2022-07-29T09:02:57;2.63;;;1.50;;
10588;SDS011;5342;55.676;13.346;2022-07-29T09:05:25;3.77;;;1.80;;
10588;SDS011;5342;55.676;13.346;2022-07-29T09:07:52;4.60;;;1.40;;
10588;SDS011;5342;55.676;13.346;2022-07-29T09:10:19;4.03;;;1.53;;
10588;SDS011;5342;55.676;13.346;2022-07-29T09:12:45;4.40;;;1.40;;
10588;SDS011;5342;55.676;13.346;2022-07-29T09:15:12;2.63;;;1.33;;
10588;SDS011;5342;55.676;13.346;2022-07-29T09:17:39;2.80;;;1.23;;
10588;SDS011;5342;55.676;13.346;2022-07-29T09:20:11;4.27;;;1.40;;
10588;SDS011;5342;55.676;13.346;2022-07-29T09:22:38;3.23;;;1.30;;
10588;SDS011;5342;55.676;13.346;2022-07-29T09:25:06;5.27;;;1.80;;
10588;SDS011;5342;55.676;13.346;2022-07-29T09:27:33;3.93;;;1.70;;
10588;SDS011;5342;55.676;13.346;2022-07-29T09:30:09;5.80;;;2.00;;
10588;SDS011;5342;55.676;13.346;2022-07-29T09:32:55;2.60;;;1.50;;
10588;SDS011;5342;55.676;13.346;2022-07-29T09:35:23;2.27;;;1.30;;
10588;SDS011;5342;55.676;13.346;2022-07-29T09:37:50;2.67;;;1.30;;
10588;SDS011;5342;55.676;13.346;2022-07-29T09:40:21;2.27;;;1.20;;
10588;SDS011;5342;55.676;13.346;2022-07-29T09:42:48;2.63;;;1.30;;
10588;SDS011;5342;55.676;13.346;2022-07-29T09:45:26;3.73;;;1.53;;
10588;SDS011;5342;55.676;13.346;2022-07-29T09:47:52;3.13;;;1.37;;
10588;SDS011;5342;55.676;13.346;2022-07-29T09:50:21;2.03;;;1.27;;
10588;SDS011;5342;55.676;13.346;2022-07-29T09:52:51;5.90;;;1.87;;
10588;SDS011;5342;55.676;13.346;2022-07-29T09:55:21;2.50;;;1.40;;
10588;SDS011;5342;55.676;13.346;2022-07-29T09:57:47;2.47;;;1.20;;
10588;SDS011;5342;55.676;13.346;2022-07-29T10:00:15;2.90;;;1.50;;
10588;SDS011;5342;55.676;13.346;2022-07-29T10:02:43;1.93;;;1.20;;
10588;SDS011;5342;55.676;13.346;2022-07-29T10:05:21;3.90;;;1.33;;
10588;SDS011;5342;55.676;13.346;2022-07-29T10:07:52;3.00;;;1.40;;
10588;SDS011;5342;55.676;13.346;2022-07-29T10:10:32;1.73;;;1.37;;
10588;SDS011;5342;55.676;13.346;2022-07-29T10:13:00;4.17;;;1.30;;
10588;SDS011;5342;55.676;13.346;2022-07-29T10:15:28;3.40;;;1.70;;
10588;SDS011;5342;55.676;13.346;2022-07-29T10:17:55;1.60;;;1.50;;
10588;SDS011;5342;55.676;13.346;2022-07-29T10:20:22;2.73;;;1.50;;
10588;SDS011;5342;55.676;13.346;2022-07-29T10:22:50;2.17;;;1.50;;
10588;SDS011;5342;55.676;13.346;2022-07-29T10:25:17;2.07;;;1.20;;
10588;SDS011;5342;55.676;13.346;2022-07-29T10:27:44;6.00;;;1.43;;
10588;SDS011;5342;55.676;13.346;2022-07-29T10:30:11;2.03;;;1.30;;
10588;SDS011;5342;55.676;13.346;2022-07-29T10:35:29;2.83;;;1.33;;
10588;SDS011;5342;55.676;13.346;2022-07-29T10:43:31;4.53;;;1.17;;
10588;SDS011;5342;55.676;13.346;2022-07-29T10:46:01;3.50;;;1.50;;
10588;SDS011;5342;55.676;13.346;2022-07-29T10:48:29;2.20;;;1.33;;
10588;SDS011;5342;55.676;13.346;2022-07-29T10:50:57;4.33;;;1.70;;
10588;SDS011;5342;55.676;13.346;2022-07-29T11:01:36;2.37;;;1.60;;
10588;SDS011;5342;55.676;13.346;2022-07-29T11:04:03;5.63;;;1.63;;
10588;SDS011;5342;55.676;13.346;2022-07-29T11:09:16;2.97;;;1.30;;
10588;SDS011;5342;55.676;13.346;2022-07-29T11:11:43;2.43;;;1.43;;
10588;SDS011;5342;55.676;13.346;2022-07-29T11:14:11;2.60;;;1.20;;
10588;SDS011;5342;55.676;13.346;2022-07-29T11:19:22;2.97;;;1.60;;
10588;SDS011;5342;55.676;13.346;2022-07-29T11:21:49;5.73;;;1.80;;
10588;SDS011;5342;55.676;13.346;2022-07-29T11:24:18;2.53;;;1.90;;
10588;SDS011;5342;55.676;13.346;2022-07-29T11:29:52;5.13;;;1.93;;
10588;SDS011;5342;55.676;13.346;2022-07-29T11:32:19;3.17;;;1.70;;
10588;SDS011;5342;55.676;13.346;2022-07-29T11:34:47;1.83;;;1.50;;
10588;SDS011;5342;55.676;13.346;2022-07-29T11:37:14;3.40;;;1.90;;
10588;SDS011;5342;55.676;13.346;2022-07-29T11:44:56;3.30;;;1.70;;
10588;SDS011;5342;55.676;13.346;2022-07-29T11:47:23;5.80;;;2.00;;
10588;SDS011;5342;55.676;13.346;2022-07-29T11:49:50;5.27;;;1.87;;
10588;SDS011;5342;55.676;13.346;2022-07-29T11:52:17;4.27;;;2.13;;
10588;SDS011;5342;55.676;13.346;2022-07-29T11:54:44;4.23;;;1.90;;
10588;SDS011;5342;55.676;13.346;2022-07-29T11:57:12;4.77;;;1.90;;
10588;SDS011;5342;55.676;13.346;2022-07-29T11:59:40;3.70;;;1.60;;
10588;SDS011;5342;55.676;13.346;2022-07-29T12:02:07;2.90;;;1.57;;
10588;SDS011;5342;55.676;13.346;2022-07-29T12:04:46;2.87;;;1.80;;
10588;SDS011;5342;55.676;13.346;2022-07-29T12:07:14;5.93;;;1.83;;
10588;SDS011;5342;55.676;13.346;2022-07-29T12:09:40;4.20;;;1.77;;
10588;SDS011;5342;55.676;13.346;2022-07-29T12:12:15;2.60;;;1.60;;
10588;SDS011;5342;55.676;13.346;2022-07-29T12:14:43;4.97;;;1.90;;
10588;SDS011;5342;55.676;13.346;2022-07-29T12:17:29;2.90;;;1.80;;
10588;SDS011;5342;55.676;13.346;2022-07-29T12:19:56;3.40;;;2.07;;
10588;SDS011;5342;55.676;13.346;2022-07-29T12:22:27;4.87;;;1.90;;
10588;SDS011;5342;55.676;13.346;2022-07-29T12:24:54;4.50;;;2.07;;
10588;SDS011;5342;55.676;13.346;2022-07-29T12:27:22;4.57;;;1.93;;
10588;SDS011;5342;55.676;13.346;2022-07-29T12:29:59;1.87;;;1.73;;
10588;SDS011;5342;55.676;13.346;2022-07-29T12:32:36;3.47;;;2.17;;
10588;SDS011;5342;55.676;13.346;2022-07-29T12:35:06;3.40;;;1.70;;
10588;SDS011;5342;55.676;13.346;2022-07-29T12:37:33;3.63;;;1.73;;
10588;SDS011;5342;55.676;13.346;2022-07-29T12:40:01;3.30;;;2.03;;
10588;SDS011;5342;55.676;13.346;2022-07-29T12:42:27;3.20;;;1.47;;
10588;SDS011;5342;55.676;13.346;2022-07-29T12:44:54;2.07;;;1.43;;
10588;SDS011;5342;55.676;13.346;2022-07-29T12:47:21;2.67;;;1.80;;
10588;SDS011;5342;55.676;13.346;2022-07-29T12:49:48;3.70;;;1.50;;
10588;SDS011;5342;55.676;13.346;2022-07-29T12:52:34;5.40;;;1.90;;
10588;SDS011;5342;55.676;13.346;2022-07-29T12:55:00;3.73;;;1.93;;
10588;SDS011;5342;55.676;13.346;2022-07-29T12:57:27;2.67;;;1.83;;
10588;SDS011;5342;55.676;13.346;2022-07-29T13:00:02;5.03;;;2.17;;
10588;SDS011;5342;55.676;13.346;2022-07-29T13:02:29;3.10;;;1.73;;
10588;SDS011;5342;55.676;13.346;2022-07-29T13:04:57;3.40;;;1.90;;
10588;SDS011;5342;55.676;13.346;2022-07-29T13:07:25;2.43;;;1.57;;
10588;SDS011;5342;55.676;13.346;2022-07-29T13:09:52;3.37;;;1.70;;
10588;SDS011;5342;55.676;13.346;2022-07-29T13:12:20;3.53;;;1.80;;
10588;SDS011;5342;55.676;13.346;2022-07-29T13:14:47;2.50;;;1.93;;
10588;SDS011;5342;55.676;13.346;2022-07-29T13:17:18;2.00;;;1.63;;
10588;SDS011;5342;55.676;13.346;2022-07-29T13:19:47;2.37;;;1.67;;
10588;SDS011;5342;55.676;13.346;2022-07-29T13:22:17;3.60;;;1.77;;
10588;SDS011;5342;55.676;13.346;2022-07-29T13:24:54;3.33;;;1.57;;
10588;SDS011;5342;55.676;13.346;2022-07-29T13:27:22;3.00;;;1.67;;
10588;SDS011;5342;55.676;13.346;2022-07-29T13:29:49;2.77;;;1.77;;
10588;SDS011;5342;55.676;13.346;2022-07-29T13:32:18;4.97;;;1.90;;
10588;SDS011;5342;55.676;13.346;2022-07-29T13:34:44;4.23;;;2.20;;
10588;SDS011;5342;55.676;13.346;2022-07-29T13:37:11;4.70;;;1.90;;
10588;SDS011;5342;55.676;13.346;2022-07-29T13:39:38;4.20;;;2.03;;
10588;SDS011;5342;55.676;13.346;2022-07-29T13:42:06;3.83;;;2.00;;
10588;SDS011;5342;55.676;13.346;2022-07-29T13:44:34;2.30;;;2.00;;
10588;SDS011;5342;55.676;13.346;2022-07-29T13:47:01;5.10;;;1.87;;
10588;SDS011;5342;55.676;13.346;2022-07-29T13:49:27;4.43;;;2.07;;
10588;SDS011;5342;55.676;13.346;2022-07-29T13:51:54;2.27;;;1.97;;
10588;SDS011;5342;55.676;13.346;2022-07-29T13:54:20;5.47;;;1.70;;
10588;SDS011;5342;55.676;13.346;2022-07-29T13:56:47;3.83;;;1.80;;
10588;SDS011;5342;55.676;13.346;2022-07-29T13:59:14;2.13;;;1.70;;
10588;SDS011;5342;55.676;13.346;2022-07-29T14:01:40;4.27;;;1.70;;
10588;SDS011;5342;55.676;13.346;2022-07-29T14:04:08;3.87;;;2.00;;
10588;SDS011;5342;55.676;13.346;2022-07-29T14:06:34;5.17;;;1.87;;
10588;SDS011;5342;55.676;13.346;2022-07-29T14:09:02;4.90;;;2.10;;
10588;SDS011;5342;55.676;13.346;2022-07-29T14:11:31;2.93;;;1.60;;
10588;SDS011;5342;55.676;13.346;2022-07-29T14:13:58;4.10;;;1.83;;
10588;SDS011;5342;55.676;13.346;2022-07-29T14:16:25;4.40;;;2.00;;
10588;SDS011;5342;55.676;13.346;2022-07-29T14:18:52;3.87;;;2.00;;
10588;SDS011;5342;55.676;13.346;2022-07-29T14:21:18;2.80;;;1.73;;
10588;SDS011;5342;55.676;13.346;2022-07-29T14:23:45;4.30;;;2.00;;
10588;SDS011;5342;55.676;13.346;2022-07-29T14:26:11;3.53;;;1.97;;
10588;SDS011;5342;55.676;13.346;2022-07-29T14:28:38;3.63;;;2.07;;
10588;SDS011;5342;55.676;13.346;2022-07-29T14:31:04;5.63;;;1.73;;
10588;SDS011;5342;55.676;13.346;2022-07-29T14:33:31;2.37;;;1.50;;
10588;SDS011;5342;55.676;13.346;2022-07-29T14:35:57;4.47;;;2.03;;
10588;SDS011;5342;55.676;13.346;2022-07-29T14:38:24;2.10;;;1.30;;
10588;SDS011;5342;55.676;13.346;2022-07-29T14:40:51;3.30;;;1.70;;
10588;SDS011;5342;55.676;13.346;2022-07-29T14:43:17;2.60;;;1.77;;
10588;SDS011;5342;55.676;13.346;2022-07-29T14:45:44;4.57;;;1.80;;
10588;SDS011;5342;55.676;13.346;2022-07-29T14:48:10;3.13;;;1.90;;
10588;SDS011;5342;55.676;13.346;2022-07-29T14:50:37;3.20;;;1.80;;
10588;SDS011;5342;55.676;13.346;2022-07-29T14:53:04;2.87;;;1.57;;
10588;SDS011;5342;55.676;13.346;2022-07-29T14:55:30;3.30;;;1.87;;
10588;SDS011;5342;55.676;13.346;2022-07-29T14:57:57;4.30;;;1.60;;
10588;SDS011;5342;55.676;13.346;2022-07-29T15:00:24;2.87;;;1.90;;
10588;SDS011;5342;55.676;13.346;2022-07-29T15:02:51;3.13;;;1.60;;
10588;SDS011;5342;55.676;13.346;2022-07-29T15:05:17;4.67;;;1.60;;
10588;SDS011;5342;55.676;13.346;2022-07-29T15:07:44;4.67;;;2.00;;
10588;SDS011;5342;55.676;13.346;2022-07-29T15:10:10;5.23;;;2.20;;
10588;SDS011;5342;55.676;13.346;2022-07-29T15:12:37;2.97;;;1.80;;
10588;SDS011;5342;55.676;13.346;2022-07-29T15:15:04;3.57;;;1.80;;
10588;SDS011;5342;55.676;13.346;2022-07-29T15:17:30;3.53;;;1.80;;
10588;SDS011;5342;55.676;13.346;2022-07-29T15:19:57;1.67;;;1.50;;
10588;SDS011;5342;55.676;13.346;2022-07-29T15:22:24;5.50;;;1.97;;
10588;SDS011;5342;55.676;13.346;2022-07-29T15:24:50;3.03;;;1.80;;
10588;SDS011;5342;55.676;13.346;2022-07-29T15:27:17;3.63;;;1.80;;
10588;SDS011;5342;55.676;13.346;2022-07-29T15:29:44;4.10;;;1.83;;
10588;SDS011;5342;55.676;13.346;2022-07-29T15:32:11;4.23;;;1.90;;
10588;SDS011;5342;55.676;13.346;2022-07-29T15:34:38;2.67;;;1.50;;
10588;SDS011;5342;55.676;13.346;2022-07-29T15:37:04;4.60;;;2.07;;
10588;SDS011;5342;55.676;13.346;2022-07-29T15:39:31;1.63;;;1.37;;
10588;SDS011;5342;55.676;13.346;2022-07-29T15:41:58;4.50;;;1.73;;